createdAt,value
2019-03-13T00:01:32.208Z,1.40
2019-03-13T00:06:37.375Z,1.20
2019-03-13T00:11:42.924Z,1.97
2019-03-13T00:16:48.071Z,1.50
2019-03-13T00:21:53.343Z,1.27
2019-03-13T00:26:58.345Z,1.30
2019-03-13T00:32:05.134Z,1.40
2019-03-13T00:37:10.277Z,1.40
2019-03-13T00:42:15.700Z,1.53
2019-03-13T00:47:22.277Z,1.63
2019-03-13T00:52:27.706Z,1.50
2019-03-13T00:57:33.091Z,1.43
2019-03-13T01:02:41.051Z,1.60
2019-03-13T01:07:46.595Z,1.80
2019-03-13T01:12:52.057Z,1.63
2019-03-13T01:17:57.475Z,1.83
2019-03-13T01:23:02.624Z,1.87
2019-03-13T01:28:08.440Z,2.10
2019-03-13T01:33:16.835Z,2.00
2019-03-13T01:38:21.897Z,1.87
2019-03-13T01:43:26.964Z,1.73
2019-03-13T01:48:33.368Z,1.93
2019-03-13T01:53:39.689Z,1.80
2019-03-13T01:58:44.828Z,1.90
2019-03-13T02:03:49.963Z,1.70
2019-03-13T02:08:55.954Z,1.77
2019-03-13T02:14:01.020Z,2.00
2019-03-13T02:19:06.159Z,1.77
2019-03-13T02:24:12.623Z,2.10
2019-03-13T02:29:17.692Z,2.10
2019-03-13T02:34:23.105Z,1.90
2019-03-13T02:39:28.181Z,0.70
2019-03-13T02:44:33.252Z,0.80
2019-03-13T02:49:38.975Z,0.93
2019-03-13T02:54:44.027Z,0.90
2019-03-13T02:59:49.572Z,1.17
2019-03-13T03:04:56.189Z,1.03
2019-03-13T03:10:01.378Z,1.10
2019-03-13T03:15:12.728Z,1.10
2019-03-13T03:20:19.103Z,1.07
2019-03-13T03:25:24.236Z,0.97
2019-03-13T03:30:29.527Z,1.27
2019-03-13T03:35:35.000Z,1.70
2019-03-13T03:40:40.144Z,1.83
2019-03-13T03:45:45.252Z,1.80
2019-03-13T03:50:50.551Z,2.07
2019-03-13T03:55:55.599Z,2.20
2019-03-13T04:01:01.853Z,2.37
2019-03-13T04:06:07.083Z,2.10
2019-03-13T04:11:13.016Z,1.90
2019-03-13T04:16:18.149Z,1.63
2019-03-13T04:21:23.384Z,1.87
2019-03-13T04:26:28.507Z,1.50
2019-03-13T04:31:33.597Z,1.40
2019-03-13T04:36:38.735Z,1.40
2019-03-13T04:41:43.727Z,1.50
2019-03-13T04:46:48.710Z,1.50
2019-03-13T04:51:54.309Z,1.30
2019-03-13T04:56:59.384Z,1.40
2019-03-13T05:02:04.864Z,1.40
2019-03-13T05:07:10.279Z,1.70
2019-03-13T05:12:15.654Z,1.67
2019-03-13T05:17:20.703Z,1.97
2019-03-13T05:22:25.772Z,1.70
2019-03-13T05:27:30.923Z,1.57
2019-03-13T05:32:35.996Z,1.70
2019-03-13T05:37:41.364Z,1.63
2019-03-13T05:42:46.821Z,1.33
2019-03-13T05:47:51.960Z,1.43
2019-03-13T05:52:57.092Z,1.57
2019-03-13T05:58:02.402Z,1.60
2019-03-13T06:03:07.535Z,1.70
2019-03-13T06:08:13.178Z,1.73
2019-03-13T06:13:18.328Z,1.30
2019-03-13T06:18:23.713Z,1.60
2019-03-13T06:23:29.601Z,1.60
2019-03-13T06:28:35.541Z,1.77
2019-03-13T06:33:40.707Z,1.90
2019-03-13T06:38:46.941Z,1.50
2019-03-13T06:43:52.091Z,1.60
2019-03-13T06:48:57.252Z,1.20
2019-03-13T06:54:02.403Z,1.50
2019-03-13T06:59:13.952Z,1.60
2019-03-13T07:04:24.948Z,1.70
2019-03-13T07:09:47.954Z,1.20
2019-03-13T07:15:12.420Z,1.10
2019-03-13T07:20:28.812Z,1.10
2019-03-13T07:25:52.966Z,1.03
2019-03-13T07:31:16.214Z,0.90
2019-03-13T07:36:42.033Z,0.90
2019-03-13T07:41:57.868Z,1.50
2019-03-13T07:47:29.234Z,1.10
2019-03-13T07:52:52.625Z,1.00
2019-03-13T07:58:26.002Z,1.10
2019-03-13T08:03:46.029Z,1.10
2019-03-13T08:09:05.212Z,1.00
2019-03-13T08:14:17.920Z,0.90
2019-03-13T08:19:42.912Z,1.10
2019-03-13T08:24:59.991Z,1.10
2019-03-13T08:30:30.861Z,1.03
2019-03-13T08:35:53.942Z,1.10
2019-03-13T08:41:27.413Z,1.00
2019-03-13T08:46:51.558Z,1.00
2019-03-13T08:52:16.984Z,1.20
2019-03-13T08:57:44.033Z,1.33
2019-03-13T09:03:14.879Z,1.17
2019-03-13T09:08:39.045Z,1.37
2019-03-13T09:13:58.394Z,1.20
2019-03-13T09:19:10.647Z,1.50
2019-03-13T09:24:34.790Z,1.17
2019-03-13T09:30:08.362Z,1.50
2019-03-13T09:35:26.925Z,1.50
2019-03-13T09:41:00.387Z,1.50
2019-03-13T09:46:36.974Z,1.40
2019-03-13T09:51:50.438Z,1.40
2019-03-13T09:57:33.016Z,1.23
2019-03-13T10:02:48.794Z,1.47
2019-03-13T10:08:00.809Z,1.40
2019-03-13T10:13:36.985Z,1.50
2019-03-13T10:18:59.839Z,1.33
2019-03-13T10:24:27.422Z,1.67
2019-03-13T10:30:03.663Z,1.30
2019-03-13T10:35:27.797Z,1.47
2019-03-13T10:40:43.020Z,1.50
2019-03-13T10:46:07.163Z,1.43
2019-03-13T10:51:35.295Z,1.20
2019-03-13T10:57:00.534Z,1.30
2019-03-13T11:02:24.794Z,1.27
2019-03-13T11:07:49.514Z,1.10
2019-03-13T11:13:05.036Z,1.20
2019-03-13T11:18:36.080Z,1.50
2019-03-13T11:23:47.376Z,1.20
2019-03-13T11:29:08.118Z,1.30
2019-03-13T11:34:21.789Z,1.43
2019-03-13T11:39:33.468Z,1.10
2019-03-13T11:45:00.515Z,1.00
2019-03-13T11:50:18.647Z,1.10
2019-03-13T11:55:33.328Z,1.20
2019-03-13T12:00:52.944Z,1.20
2019-03-13T12:06:16.437Z,1.07
2019-03-13T12:11:36.131Z,1.10
2019-03-13T12:16:52.238Z,1.10
2019-03-13T12:22:28.907Z,1.17
2019-03-13T12:28:00.264Z,1.30
2019-03-13T12:33:16.072Z,1.15
2019-03-13T12:38:49.112Z,1.23
2019-03-13T12:44:07.918Z,1.20
2019-03-13T12:49:34.947Z,1.00
2019-03-13T12:54:58.421Z,1.17
2019-03-13T13:00:12.108Z,0.88
2019-03-13T13:05:26.558Z,1.10
2019-03-13T13:10:45.610Z,1.07
2019-03-13T13:16:12.965Z,0.93
2019-03-13T13:21:18.134Z,0.90
2019-03-13T13:26:23.729Z,1.22
2019-03-13T13:31:29.451Z,1.00
2019-03-13T13:36:34.936Z,0.90
2019-03-13T13:41:40.563Z,1.00
2019-03-13T13:46:46.161Z,1.00
2019-03-13T13:51:51.621Z,1.10
2019-03-13T13:56:56.867Z,1.02
2019-03-13T14:02:02.295Z,1.30
2019-03-13T14:07:08.756Z,1.30
2019-03-13T14:12:14.665Z,0.90
2019-03-13T14:17:20.163Z,1.10
2019-03-13T14:22:25.307Z,1.20
2019-03-13T14:27:31.259Z,1.27
2019-03-13T14:32:36.436Z,1.13
2019-03-13T14:37:42.857Z,1.37
2019-03-13T14:42:48.984Z,1.10
2019-03-13T14:47:54.535Z,1.00
2019-03-13T14:52:59.681Z,1.00
2019-03-13T14:58:04.834Z,1.10
2019-03-13T15:03:11.952Z,1.10
2019-03-13T15:08:18.216Z,1.30
2019-03-13T15:13:23.379Z,1.17
2019-03-13T15:18:29.162Z,1.30
2019-03-13T15:23:34.253Z,1.40
2019-03-13T15:28:39.450Z,1.50
2019-03-13T15:33:44.617Z,1.17
2019-03-13T15:38:50.221Z,1.00
2019-03-13T15:43:55.382Z,1.30
2019-03-13T15:49:00.594Z,1.10
2019-03-13T15:54:06.172Z,1.20
2019-03-13T15:59:12.235Z,1.20
2019-03-13T16:04:17.501Z,1.30
2019-03-13T16:09:23.088Z,1.22
2019-03-13T16:14:28.262Z,1.20
2019-03-13T16:19:33.446Z,1.00
2019-03-13T16:24:38.707Z,1.07
2019-03-13T16:29:44.510Z,1.30
2019-03-13T16:34:49.669Z,1.57
2019-03-13T16:39:54.819Z,1.20
2019-03-13T16:45:00.251Z,1.60
2019-03-13T16:50:06.828Z,1.60
2019-03-13T16:55:14.274Z,1.20
2019-03-13T17:00:22.151Z,1.47
2019-03-13T17:05:30.467Z,1.20
2019-03-13T17:10:36.436Z,1.43
2019-03-13T17:15:41.595Z,1.30
2019-03-13T17:20:46.869Z,1.27
2019-03-13T17:25:52.093Z,1.60
2019-03-13T17:30:58.186Z,1.40
2019-03-13T17:36:04.534Z,1.40
2019-03-13T17:41:09.780Z,1.40
2019-03-13T17:46:15.346Z,1.40
2019-03-13T17:51:20.629Z,1.43
2019-03-13T17:56:26.777Z,1.70
2019-03-13T18:01:32.281Z,1.37
2019-03-13T18:06:40.810Z,1.57
2019-03-13T18:11:46.520Z,1.50
2019-03-13T18:16:52.695Z,1.33
2019-03-13T18:21:57.896Z,1.63
2019-03-13T18:27:03.063Z,1.40
2019-03-13T18:32:08.233Z,1.30
2019-03-13T18:37:13.421Z,1.20
2019-03-13T18:42:18.963Z,1.50
2019-03-13T18:47:26.278Z,1.30
2019-03-13T18:52:31.507Z,1.57
2019-03-13T18:57:36.961Z,1.47
2019-03-13T19:02:43.284Z,1.30
2019-03-13T19:07:48.835Z,1.53
2019-03-13T19:12:53.983Z,1.50
2019-03-13T19:18:01.450Z,1.60
2019-03-13T19:23:06.981Z,1.90
2019-03-13T19:28:12.250Z,1.80
2019-03-13T19:33:17.536Z,1.70
2019-03-13T19:38:23.038Z,1.97
2019-03-13T19:43:28.234Z,1.87
2019-03-13T19:48:33.826Z,2.20
2019-03-13T19:53:41.730Z,1.97
2019-03-13T19:58:45.707Z,1.80
2019-03-13T20:03:55.510Z,1.60
2019-03-13T20:08:58.220Z,1.73
2019-03-13T20:14:03.381Z,1.60
2019-03-13T20:19:09.567Z,1.80
2019-03-13T20:24:14.726Z,1.70
2019-03-13T20:29:20.089Z,1.80
2019-03-13T20:34:25.364Z,1.80
2019-03-13T20:39:30.763Z,1.83
2019-03-13T20:44:35.922Z,1.83
2019-03-13T20:49:41.100Z,1.93
2019-03-13T20:54:46.321Z,2.00
2019-03-13T20:59:52.393Z,1.53
2019-03-13T21:04:58.573Z,1.60
2019-03-13T21:10:04.493Z,1.50
2019-03-13T21:15:11.335Z,1.70
2019-03-13T21:20:17.549Z,1.70
2019-03-13T21:25:24.154Z,1.40
2019-03-13T21:30:29.370Z,1.40
2019-03-13T21:35:34.608Z,1.30
2019-03-13T21:40:40.438Z,1.30
2019-03-13T21:45:46.543Z,1.43
2019-03-13T21:50:51.691Z,1.20
2019-03-13T21:55:57.852Z,1.20
2019-03-13T22:01:03.048Z,0.90
2019-03-13T22:06:08.213Z,1.00
2019-03-13T22:11:14.516Z,1.20
2019-03-13T22:16:20.497Z,1.20
2019-03-13T22:21:25.992Z,1.00
2019-03-13T22:26:31.547Z,0.70
2019-03-13T22:31:38.777Z,0.80
2019-03-13T22:36:44.939Z,0.80
2019-03-13T22:41:50.217Z,0.80
2019-03-13T22:46:55.398Z,1.00
2019-03-13T22:52:01.615Z,1.00
2019-03-13T22:57:07.194Z,1.33
2019-03-13T23:02:13.303Z,1.37
2019-03-13T23:07:19.239Z,1.50
2019-03-13T23:12:24.424Z,2.00
2019-03-13T23:17:29.593Z,1.77
2019-03-13T23:22:34.850Z,2.17
2019-03-13T23:27:40.366Z,2.20
2019-03-13T23:32:45.799Z,2.20
2019-03-13T23:37:51.258Z,2.17
2019-03-13T23:42:57.096Z,2.13
2019-03-13T23:48:02.956Z,2.60
2019-03-13T23:53:08.211Z,2.00
2019-03-13T23:58:13.359Z,2.77
